Time;durP1;ratioP1;P1;durP2;ratioP2;P2;SDS_P1;SDS_P2;PMS_P1;PMS_P2;Temp;Humidity;BMP_temperature;BMP_pressure;BME280_temperature;BME280_humidity;BME280_pressure;Samples;Min_cycle;Max_cycle;Signal;HPM_P1;HPM_P2
2023/07/26 00:01:10;;;;;;;0.00;0.00;;;12.40;99.90;;;;;;5018400;28;20026;-87
2023/07/26 00:03:36;;;;;;;0.00;0.00;;;;;;;;;;5019270;28;20045;-85
2023/07/26 00:06:01;;;;;;;0.00;0.00;;;12.30;99.90;;;;;;5029207;28;20028;-86
2023/07/26 00:08:27;;;;;;;0.00;0.00;;;;;;;;;;5042473;28;20402;-85
2023/07/26 00:10:53;;;;;;;0.00;0.00;;;12.30;99.90;;;;;;5028839;28;20033;-86
2023/07/26 00:13:19;;;;;;;0.00;0.00;;;;;;;;;;5029385;28;20035;-86
2023/07/26 00:15:45;;;;;;;0.00;0.00;;;;;;;;;;5022501;28;20044;-86
2023/07/26 00:18:11;;;;;;;0.00;0.00;;;;;;;;;;5028720;28;20033;-86
2023/07/26 00:20:37;;;;;;;0.00;0.00;;;;;;;;;;5026364;28;20076;-85
2023/07/26 00:23:03;;;;;;;0.00;0.00;;;;;;;;;;5030069;28;20033;-86
2023/07/26 00:25:29;;;;;;;0.00;0.00;;;;;;;;;;5026654;28;20032;-85
2023/07/26 00:27:54;;;;;;;0.00;0.00;;;12.10;99.90;;;;;;5028204;28;20018;-85
2023/07/26 00:30:20;;;;;;;0.00;0.00;;;;;;;;;;5026562;28;20055;-85
2023/07/26 00:32:46;;;;;;;0.00;0.00;;;;;;;;;;5028824;28;20029;-86
2023/07/26 00:35:24;;;;;;;0.00;0.00;;;12.10;99.90;;;;;;5028948;28;20103;-85
2023/07/26 00:37:50;;;;;;;0.00;0.00;;;12.00;99.90;;;;;;5029358;28;20041;-85
2023/07/26 00:40:15;;;;;;;0.00;0.00;;;12.00;99.90;;;;;;5028502;28;20022;-85
2023/07/26 00:42:41;;;;;;;0.00;0.00;;;;;;;;;;5026292;28;20573;-84
2023/07/26 00:45:07;;;;;;;0.00;0.00;;;;;;;;;;5021422;28;20115;-85
2023/07/26 00:47:33;;;;;;;0.00;0.00;;;11.90;99.90;;;;;;5026210;28;20395;-84
2023/07/26 00:49:59;;;;;;;0.00;0.00;;;;;;;;;;5029781;28;20033;-85
2023/07/26 00:52:25;;;;;;;0.00;0.00;;;11.90;99.90;;;;;;5025296;28;20030;-86
2023/07/26 00:54:52;;;;;;;0.00;0.00;;;11.80;99.90;;;;;;5024129;28;20125;-86
2023/07/26 00:57:18;;;;;;;0.00;0.00;;;11.90;99.90;;;;;;5027106;28;20029;-84
2023/07/26 00:59:44;;;;;;;0.00;0.00;;;;;;;;;;5029269;28;20128;-85
2023/07/26 01:02:10;;;;;;;0.00;0.00;;;11.90;99.90;;;;;;5027533;28;20088;-85
2023/07/26 01:04:35;;;;;;;0.00;0.00;;;;;;;;;;5025382;28;20431;-85
2023/07/26 01:07:22;;;;;;;0.00;0.00;;;11.90;99.90;;;;;;5026930;28;20395;-86
2023/07/26 01:10:16;;;;;;;0.00;0.00;;;11.90;99.90;;;;;;5025595;28;20047;-84
2023/07/26 01:12:54;;;;;;;0.00;0.00;;;11.80;99.90;;;;;;5046103;28;20057;-85
2023/07/26 01:15:25;;;;;;;0.00;0.00;;;11.80;99.90;;;;;;5025860;28;20038;-84
2023/07/26 01:18:16;;;;;;;0.00;0.00;;;11.60;99.90;;;;;;5024512;28;20033;-85
2023/07/26 01:20:42;;;;;;;0.00;0.00;;;11.60;99.90;;;;;;5028472;28;20033;-85
2023/07/26 01:23:08;;;;;;;0.00;0.00;;;11.80;99.90;;;;;;5029461;28;20036;-85
2023/07/26 01:25:34;;;;;;;0.00;0.00;;;11.80;99.90;;;;;;5027093;28;20025;-85
2023/07/26 01:28:00;;;;;;;0.00;0.00;;;11.80;99.90;;;;;;5020123;28;20439;-85
2023/07/26 01:30:31;;;;;;;0.00;0.00;;;11.90;99.90;;;;;;5022171;28;20728;-85
2023/07/26 01:32:59;;;;;;;0.00;0.00;;;13.10;99.90;;;;;;5025108;28;20044;-85
2023/07/26 01:35:26;;;;;;;0.00;0.00;;;;;;;;;;5021319;28;20061;-85
2023/07/26 01:37:53;;;;;;;0.00;0.00;;;11.90;99.90;;;;;;5024476;28;20295;-85
2023/07/26 01:40:20;;;;;;;0.00;0.00;;;11.90;99.90;;;;;;5039122;28;20527;-85
2023/07/26 01:42:46;;;;;;;0.00;0.00;;;11.90;99.90;;;;;;5024904;28;20033;-85
2023/07/26 01:45:12;;;;;;;0.00;0.00;;;;;;;;;;5025500;28;20574;-85
2023/07/26 01:47:37;;;;;;;0.00;0.00;;;;;;;;;;5021023;28;20030;-85
2023/07/26 01:50:04;;;;;;;0.00;0.00;;;;;;;;;;5023567;28;20029;-83
2023/07/26 01:52:29;;;;;;;0.00;0.00;;;;;;;;;;5025006;28;20033;-84
2023/07/26 01:54:55;;;;;;;0.00;0.00;;;;;;;;;;5021730;28;20039;-85
2023/07/26 01:57:24;;;;;;;0.00;0.00;;;;;;;;;;5024480;28;20218;-85
2023/07/26 01:59:50;;;;;;;0.00;0.00;;;;;;;;;;5021743;28;20091;-85
2023/07/26 02:02:16;;;;;;;0.00;0.00;;;;;;;;;;5026599;28;20451;-85
2023/07/26 02:04:43;;;;;;;0.00;0.00;;;11.70;99.90;;;;;;5024736;28;20088;-86
2023/07/26 02:07:08;;;;;;;0.08;0.08;;;11.50;99.90;;;;;;5016424;28;20044;-86
2023/07/26 02:09:34;;;;;;;0.00;0.00;;;11.60;99.90;;;;;;5022532;28;20113;-85
2023/07/26 02:12:00;;;;;;;0.00;0.00;;;;;;;;;;5020274;28;20388;-85
2023/07/26 02:14:26;;;;;;;0.00;0.00;;;;;;;;;;5024160;28;20030;-86
2023/07/26 02:16:51;;;;;;;0.00;0.00;;;11.60;99.90;;;;;;5020871;28;20035;-86
2023/07/26 02:19:17;;;;;;;0.00;0.00;;;;;;;;;;5024763;28;20056;-85
2023/07/26 02:21:43;;;;;;;0.00;0.00;;;11.60;99.90;;;;;;5026430;28;20033;-86
2023/07/26 02:24:09;;;;;;;0.00;0.00;;;;;;;;;;5022474;28;20508;-85
2023/07/26 02:26:34;;;;;;;0.00;0.00;;;11.70;99.90;;;;;;5022482;28;20034;-85
2023/07/26 02:29:00;;;;;;;0.00;0.00;;;;;;;;;;5020576;28;20022;-85
2023/07/26 02:31:26;;;;;;;0.00;0.00;;;11.70;99.90;;;;;;5024441;28;20025;-86
2023/07/26 02:33:52;;;;;;;0.03;0.03;;;;;;;;;;5025600;28;20055;-86
2023/07/26 02:36:18;;;;;;;0.00;0.00;;;;;;;;;;5024698;28;20385;-85
2023/07/26 02:38:43;;;;;;;0.00;0.00;;;11.90;99.90;;;;;;5025222;28;20064;-85
2023/07/26 02:41:09;;;;;;;0.00;0.00;;;;;;;;;;5021133;28;20030;-86
2023/07/26 02:43:35;;;;;;;0.00;0.00;;;11.90;99.90;;;;;;5026647;28;20056;-86
2023/07/26 02:46:00;;;;;;;0.00;0.00;;;;;;;;;;5022413;28;20496;-85
2023/07/26 02:48:27;;;;;;;0.00;0.00;;;11.90;99.90;;;;;;5023469;28;20076;-85
2023/07/26 02:50:52;;;;;;;0.00;0.00;;;12.00;99.90;;;;;;5024873;28;20029;-86
2023/07/26 02:53:18;;;;;;;0.00;0.00;;;;;;;;;;5029556;28;20087;-85
2023/07/26 02:55:44;;;;;;;0.00;0.00;;;;;;;;;;5026811;28;20033;-87
2023/07/26 02:58:10;;;;;;;0.00;0.00;;;12.00;99.90;;;;;;5025222;28;20447;-85
2023/07/26 03:00:36;;;;;;;0.00;0.00;;;12.10;99.90;;;;;;5024060;28;20037;-85
2023/07/26 03:03:02;;;;;;;0.00;0.00;;;;;;;;;;5024472;28;20026;-86
2023/07/26 03:05:28;;;;;;;0.00;0.00;;;;;;;;;;5026722;28;20025;-83
2023/07/26 03:07:54;;;;;;;0.00;0.00;;;12.20;99.90;;;;;;5023007;28;20040;-85
2023/07/26 03:10:20;;;;;;;0.00;0.00;;;;;;;;;;5015399;28;20022;-85
2023/07/26 03:12:46;;;;;;;0.03;0.03;;;;;;;;;;5018355;28;20030;-86
2023/07/26 03:15:12;;;;;;;0.00;0.00;;;;;;;;;;5025939;28;20112;-85
2023/07/26 03:17:38;;;;;;;0.00;0.00;;;;;;;;;;5018433;28;20029;-85
2023/07/26 03:20:04;;;;;;;0.00;0.00;;;;;;;;;;5024165;28;20034;-85
2023/07/26 03:22:30;;;;;;;0.00;0.00;;;;;;;;;;5020545;28;20033;-85
2023/07/26 03:24:56;;;;;;;0.00;0.00;;;;;;;;;;5025673;28;20484;-86
2023/07/26 03:27:22;;;;;;;0.00;0.00;;;12.60;99.90;;;;;;5018128;28;20485;-86
2023/07/26 03:29:48;;;;;;;0.00;0.00;;;;;;;;;;5022469;28;20032;-85
2023/07/26 03:32:14;;;;;;;0.00;0.00;;;12.60;99.90;;;;;;5022983;28;20029;-86
2023/07/26 03:34:39;;;;;;;0.00;0.00;;;14.00;99.90;;;;;;5025637;28;20128;-86
2023/07/26 03:37:05;;;;;;;0.00;0.00;;;12.50;99.90;;;;;;5026313;28;20104;-85
2023/07/26 03:39:31;;;;;;;0.00;0.00;;;;;;;;;;5024262;28;20029;-85
2023/07/26 03:41:57;;;;;;;0.00;0.00;;;;;;;;;;5019549;28;20030;-85
2023/07/26 03:44:23;;;;;;;0.00;0.00;;;;;;;;;;5019642;28;20030;-85
2023/07/26 03:46:49;;;;;;;0.00;0.00;;;;;;;;;;5021602;28;20108;-86
2023/07/26 03:49:14;;;;;;;0.00;0.00;;;12.80;99.90;;;;;;5021266;28;20567;-85
2023/07/26 03:51:41;;;;;;;0.00;0.00;;;;;;;;;;5022593;28;20032;-86
2023/07/26 03:54:07;;;;;;;0.00;0.00;;;12.90;99.90;;;;;;5021299;28;20022;-85
2023/07/26 03:56:33;;;;;;;0.00;0.00;;;;;;;;;;5020188;28;20040;-85
2023/07/26 03:58:58;;;;;;;0.00;0.00;;;12.90;99.90;;;;;;5020677;28;20053;-86
2023/07/26 04:01:25;;;;;;;0.00;0.00;;;;;;;;;;5015595;28;20115;-85
2023/07/26 04:03:51;;;;;;;0.00;0.00;;;12.90;99.90;;;;;;5019965;28;20117;-85
2023/07/26 04:06:17;;;;;;;0.00;0.00;;;;;;;;;;5022728;28;20026;-85
2023/07/26 04:08:43;;;;;;;0.00;0.00;;;;;;;;;;5022055;28;20396;-86
2023/07/26 04:11:09;;;;;;;0.00;0.00;;;;;;;;;;5017979;28;20392;-85
2023/07/26 04:13:34;;;;;;;0.00;0.00;;;13.10;99.90;;;;;;5026924;28;20539;-85
2023/07/26 04:16:00;;;;;;;0.00;0.00;;;;;;;;;;5028798;28;20036;-85
2023/07/26 04:18:26;;;;;;;0.00;0.00;;;13.30;99.90;;;;;;5029686;28;20036;-85
2023/07/26 04:20:52;;;;;;;0.00;0.00;;;13.20;99.90;;;;;;5031895;28;20040;-85
2023/07/26 04:23:18;;;;;;;0.00;0.00;;;;;;;;;;5030902;28;20498;-86
2023/07/26 04:25:49;;;;;;;0.00;0.00;;;13.10;99.90;;;;;;5029820;28;20535;-87
2023/07/26 04:28:14;;;;;;;0.00;0.00;;;13.10;99.90;;;;;;5028376;28;20549;-85
2023/07/26 04:30:40;;;;;;;0.00;0.00;;;;;;;;;;5028015;28;20121;-86
2023/07/26 04:33:06;;;;;;;0.00;0.00;;;;;;;;;;5030728;28;20033;-86
2023/07/26 04:35:32;;;;;;;0.00;0.00;;;;;;;;;;5030044;28;20044;-85
2023/07/26 04:37:58;;;;;;;0.00;0.00;;;;;;;;;;5037532;28;20068;-84
2023/07/26 04:40:24;;;;;;;0.00;0.00;;;;;;;;;;5028825;28;20108;-86
2023/07/26 04:42:50;;;;;;;0.00;0.00;;;;;;;;;;5016541;28;20369;-86
2023/07/26 04:45:15;;;;;;;0.00;0.00;;;13.20;99.90;;;;;;5027666;28;20481;-84
2023/07/26 04:47:41;;;;;;;0.00;0.00;;;;;;;;;;5030555;28;20032;-85
2023/07/26 04:50:07;;;;;;;0.00;0.00;;;;;;;;;;5028674;28;20040;-85
2023/07/26 04:52:37;;;;;;;0.00;0.00;;;13.30;99.90;;;;;;5027531;28;20069;-86
2023/07/26 04:55:04;;;;;;;0.00;0.00;;;13.30;99.90;;;;;;5028566;28;20021;-84
2023/07/26 04:57:30;;;;;;;0.00;0.00;;;13.30;99.90;;;;;;5025050;28;20139;-85
2023/07/26 04:59:55;;;;;;;0.00;0.00;;;13.60;99.90;;;;;;5024798;28;20044;-85
2023/07/26 05:02:21;;;;;;;0.00;0.00;;;;;;;;;;5024809;28;20071;-86
2023/07/26 05:04:47;;;;;;;0.00;0.00;;;13.50;99.90;;;;;;5029920;28;20486;-85
2023/07/26 05:07:12;;;;;;;0.00;0.00;;;;;;;;;;5029248;28;20049;-85
2023/07/26 05:09:38;;;;;;;0.00;0.00;;;13.60;99.90;;;;;;5025533;28;20040;-85
2023/07/26 05:12:04;;;;;;;0.00;0.00;;;13.60;99.90;;;;;;5029494;28;20029;-83
2023/07/26 05:14:30;;;;;;;0.00;0.00;;;;;;;;;;5024268;28;20017;-85
2023/07/26 05:16:55;;;;;;;0.00;0.00;;;13.60;99.90;;;;;;5024466;28;20026;-86
2023/07/26 05:19:21;;;;;;;0.00;0.00;;;;;;;;;;5026169;28;20021;-85
2023/07/26 05:21:47;;;;;;;0.00;0.00;;;;;;;;;;5027548;28;20567;-85
2023/07/26 05:24:13;;;;;;;0.00;0.00;;;;;;;;;;5029200;28;20025;-85
2023/07/26 05:26:39;;;;;;;0.00;0.00;;;;;;;;;;5021941;28;20064;-85
2023/07/26 05:29:05;;;;;;;0.00;0.00;;;;;;;;;;5025240;28;20541;-86
2023/07/26 05:31:31;;;;;;;0.00;0.00;;;;;;;;;;5029266;28;20049;-86
2023/07/26 05:33:57;;;;;;;0.00;0.00;;;;;;;;;;5023320;28;20033;-85
2023/07/26 05:36:22;;;;;;;0.00;0.00;;;13.80;99.90;;;;;;5028162;28;20117;-86
2023/07/26 05:38:48;;;;;;;0.00;0.00;;;;;;;;;;5022163;28;20129;-85
2023/07/26 05:41:14;;;;;;;0.00;0.00;;;13.80;99.90;;;;;;5020279;28;20393;-85
2023/07/26 05:43:42;;;;;;;0.00;0.00;;;13.80;99.90;;;;;;5026466;28;20313;-86
2023/07/26 05:46:08;;;;;;;0.00;0.00;;;13.80;99.90;;;;;;5027439;28;20104;-85
2023/07/26 05:48:34;;;;;;;0.00;0.00;;;;;;;;;;5023970;28;20582;-87
2023/07/26 05:51:00;;;;;;;0.00;0.00;;;;;;;;;;5031210;28;20063;-86
2023/07/26 05:53:26;;;;;;;0.00;0.00;;;;;;;;;;5019398;28;20395;-87
2023/07/26 05:55:51;;;;;;;0.00;0.00;;;13.90;99.90;;;;;;5031905;22;20049;-90
2023/07/26 05:58:17;;;;;;;0.00;0.00;;;;;;;;;;5007046;28;20400;-89
2023/07/26 06:00:43;;;;;;;0.00;0.00;;;;;;;;;;5011950;28;20041;-88
2023/07/26 06:03:09;;;;;;;0.00;0.00;;;;;;;;;;4987449;28;20058;-85
2023/07/26 06:05:35;;;;;;;0.00;0.00;;;14.20;99.90;;;;;;5011526;28;20022;-88
2023/07/26 06:08:00;;;;;;;0.00;0.00;;;14.30;99.90;;;;;;5008462;28;20458;-88
2023/07/26 06:10:26;;;;;;;0.00;0.00;;;14.30;99.90;;;;;;5007210;28;20511;-89
2023/07/26 06:12:52;;;;;;;0.00;0.00;;;;;;;;;;5006947;28;20081;-90
2023/07/26 06:15:18;;;;;;;0.00;0.00;;;;;;;;;;5012798;28;20040;-89
2023/07/26 06:17:43;;;;;;;0.00;0.00;;;14.50;99.90;;;;;;5004692;28;20033;-89
2023/07/26 06:20:10;;;;;;;0.00;0.00;;;14.60;99.90;;;;;;5011324;28;20034;-87
2023/07/26 06:22:36;;;;;;;0.00;0.00;;;14.70;99.90;;;;;;5013624;28;20021;-88
2023/07/26 06:25:02;;;;;;;0.00;0.00;;;;;;;;;;5011482;28;20349;-89
2023/07/26 06:27:29;;;;;;;0.00;0.00;;;15.20;99.90;;;;;;5008491;28;20017;-88
2023/07/26 06:29:54;;;;;;;0.00;0.00;;;15.30;99.90;;;;;;5008198;28;20027;-90
2023/07/26 06:32:20;;;;;;;0.00;0.00;;;;;;;;;;5014774;28;20503;-88
2023/07/26 06:34:46;;;;;;;0.00;0.00;;;;;;;;;;5010501;28;20753;-88
2023/07/26 06:37:12;;;;;;;0.00;0.00;;;;;;;;;;5007189;28;20160;-85
2023/07/26 06:39:38;;;;;;;0.00;0.00;;;;;;;;;;5018801;28;20238;-89
2023/07/26 06:42:04;;;;;;;0.00;0.00;;;;;;;;;;4998758;28;20033;-88
2023/07/26 06:44:30;;;;;;;0.00;0.00;;;15.80;99.90;;;;;;5003609;28;20037;-88
2023/07/26 06:46:56;;;;;;;0.00;0.00;;;;;;;;;;5002878;28;20026;-86
2023/07/26 06:49:21;;;;;;;0.00;0.00;;;15.70;99.90;;;;;;5007554;28;20033;-88
2023/07/26 06:51:50;;;;;;;0.00;0.00;;;15.70;99.90;;;;;;5003502;28;20400;-87
2023/07/26 06:54:16;;;;;;;0.03;0.03;;;;;;;;;;5005208;28;20488;-87
2023/07/26 06:56:44;;;;;;;0.00;0.00;;;15.90;99.90;;;;;;5010470;28;20034;-87
2023/07/26 06:59:12;;;;;;;0.00;0.00;;;16.00;99.90;;;;;;5012759;28;20049;-90
2023/07/26 07:01:38;;;;;;;0.00;0.00;;;16.00;99.90;;;;;;5011559;28;20076;-89
2023/07/26 07:04:03;;;;;;;0.00;0.00;;;16.10;99.90;;;;;;5008789;28;20026;-89
2023/07/26 07:06:29;;;;;;;0.00;0.00;;;;;;;;;;5004177;28;20120;-89
2023/07/26 07:08:55;;;;;;;0.00;0.00;;;;;;;;;;5019631;28;20101;-89
2023/07/26 07:11:21;;;;;;;0.00;0.00;;;16.30;99.90;;;;;;5009395;28;20033;-88
2023/07/26 07:13:47;;;;;;;0.00;0.00;;;;;;;;;;5010705;28;20045;-89
2023/07/26 07:16:13;;;;;;;0.00;0.00;;;;;;;;;;5004234;28;20462;-90
2023/07/26 07:18:39;;;;;;;0.00;0.00;;;16.10;99.90;;;;;;5000960;28;20061;-89
2023/07/26 07:21:05;;;;;;;0.00;0.00;;;;;;;;;;5008284;28;20069;-90
2023/07/26 07:23:31;;;;;;;0.00;0.00;;;;;;;;;;5004160;28;20030;-88
2023/07/26 07:25:57;;;;;;;0.00;0.00;;;16.00;99.90;;;;;;5009823;28;20018;-89
2023/07/26 07:28:22;;;;;;;0.00;0.00;;;16.10;99.90;;;;;;5009056;28;20032;-88
2023/07/26 07:30:49;;;;;;;0.00;0.00;;;16.20;99.90;;;;;;5002301;28;20037;-89
2023/07/26 07:33:15;;;;;;;0.00;0.00;;;16.30;99.90;;;;;;5003395;28;20029;-88
2023/07/26 07:35:41;;;;;;;0.00;0.00;;;;;;;;;;5004647;28;20396;-89
2023/07/26 07:38:06;;;;;;;0.00;0.00;;;16.40;99.90;;;;;;5003941;28;20030;-89
2023/07/26 07:40:32;;;;;;;0.00;0.00;;;;;;;;;;5005407;28;20057;-88
2023/07/26 07:42:58;;;;;;;0.00;0.00;;;;;;;;;;5007015;28;20026;-89
2023/07/26 07:45:24;;;;;;;0.00;0.00;;;17.00;99.90;;;;;;5007669;28;20034;-88
2023/07/26 07:47:50;;;;;;;0.00;0.00;;;;;;;;;;5009176;28;20025;-89
2023/07/26 07:50:16;;;;;;;0.00;0.00;;;;;;;;;;5003827;28;20076;-88
2023/07/26 07:52:42;;;;;;;0.00;0.00;;;17.50;99.90;;;;;;5007651;28;20026;-87
2023/07/26 07:55:08;;;;;;;0.00;0.00;;;17.30;99.90;;;;;;5006075;28;20472;-85
2023/07/26 07:57:33;;;;;;;0.00;0.00;;;17.50;99.90;;;;;;5020313;28;20515;-89
2023/07/26 07:59:59;;;;;;;0.00;0.00;;;17.70;99.90;;;;;;5005543;28;20034;-90
2023/07/26 08:02:25;;;;;;;0.00;0.00;;;;;;;;;;5005200;28;20487;-89
2023/07/26 08:04:50;;;;;;;0.00;0.00;;;;;;;;;;5009975;28;20125;-89
2023/07/26 08:07:16;;;;;;;0.00;0.00;;;;;;;;;;5010369;28;20072;-89
2023/07/26 08:09:42;;;;;;;0.00;0.00;;;;;;;;;;5003755;28;20026;-87
2023/07/26 08:12:08;;;;;;;0.00;0.00;;;;;;;;;;5012415;28;20048;-89
2023/07/26 08:14:34;;;;;;;0.00;0.00;;;18.50;99.90;;;;;;5012542;28;20476;-89
2023/07/26 08:17:00;;;;;;;0.00;0.00;;;;;;;;;;5007437;28;20037;-89
2023/07/26 08:19:26;;;;;;;0.00;0.00;;;;;;;;;;5010425;28;20030;-87
2023/07/26 08:21:52;;;;;;;0.00;0.00;;;;;;;;;;5011634;28;20033;-90
2023/07/26 08:24:18;;;;;;;0.00;0.00;;;18.40;99.90;;;;;;5008765;28;20035;-91
2023/07/26 08:26:44;;;;;;;0.00;0.00;;;;;;;;;;5009703;28;20022;-89
2023/07/26 08:29:10;;;;;;;0.00;0.00;;;18.50;99.90;;;;;;5012412;28;20030;-90
2023/07/26 08:31:37;;;;;;;0.00;0.00;;;18.40;99.90;;;;;;5013868;28;20036;-89
2023/07/26 08:34:02;;;;;;;0.00;0.00;;;17.80;99.90;;;;;;5015437;28;20033;-89
2023/07/26 08:36:28;;;;;;;0.00;0.00;;;;;;;;;;5012218;28;20034;-89
2023/07/26 08:38:54;;;;;;;0.00;0.00;;;;;;;;;;5011469;28;20029;-89
2023/07/26 08:41:20;;;;;;;0.00;0.00;;;;;;;;;;5009966;28;20040;-90
2023/07/26 08:43:47;;;;;;;0.00;0.00;;;18.60;99.90;;;;;;5013610;28;20083;-89
2023/07/26 08:46:14;;;;;;;0.00;0.00;;;18.70;99.90;;;;;;5007543;28;20408;-90
2023/07/26 08:48:41;;;;;;;0.00;0.00;;;18.90;99.90;;;;;;5011031;28;20067;-87
2023/07/26 08:51:07;;;;;;;0.00;0.00;;;18.90;99.90;;;;;;5007649;28;20030;-88
2023/07/26 08:53:33;;;;;;;0.00;0.00;;;21.30;99.90;;;;;;5009214;28;20113;-90
2023/07/26 08:55:59;;;;;;;0.00;0.00;;;19.30;99.90;;;;;;5010297;28;20057;-90
2023/07/26 08:58:25;;;;;;;0.00;0.00;;;;;;;;;;5018044;28;20072;-90
2023/07/26 09:00:51;;;;;;;0.00;0.00;;;18.90;99.90;;;;;;5029657;28;20037;-88
2023/07/26 09:03:17;;;;;;;0.00;0.00;;;;;;;;;;5009328;28;20077;-89
2023/07/26 09:05:45;;;;;;;0.00;0.00;;;18.60;99.90;;;;;;5012305;28;20041;-88
2023/07/26 09:08:11;;;;;;;0.00;0.00;;;18.70;99.90;;;;;;5008482;28;20083;-90
2023/07/26 09:10:38;;;;;;;0.00;0.00;;;18.70;99.90;;;;;;5011845;28;20117;-90
2023/07/26 09:13:10;;;;;;;0.00;0.00;;;18.70;99.90;;;;;;5011212;28;20033;-91
2023/07/26 09:15:41;;;;;;;0.00;0.00;;;18.80;99.90;;;;;;5013191;28;20172;-89
2023/07/26 09:18:12;;;;;;;0.00;0.00;;;18.90;99.90;;;;;;5011875;28;20113;-90
2023/07/26 09:20:38;;;;;;;0.00;0.00;;;19.00;99.90;;;;;;5013477;28;20034;-90
2023/07/26 09:23:04;;;;;;;0.00;0.00;;;;;;;;;;5010574;28;20498;-89
2023/07/26 09:25:34;;;;;;;0.00;0.00;;;19.00;99.90;;;;;;5008148;28;20393;-89
2023/07/26 09:28:01;;;;;;;0.00;0.00;;;19.10;99.90;;;;;;5015471;28;20018;-90
2023/07/26 09:30:27;;;;;;;0.00;0.00;;;18.90;99.90;;;;;;5014242;28;20026;-88
2023/07/26 09:32:56;;;;;;;0.00;0.00;;;19.00;99.90;;;;;;5012630;28;20455;-90
2023/07/26 09:35:22;;;;;;;0.00;0.00;;;19.60;98.70;;;;;;5015372;28;20092;-90
2023/07/26 09:37:47;;;;;;;0.00;0.00;;;19.60;98.90;;;;;;5011379;28;20038;-89
2023/07/26 09:40:13;;;;;;;0.00;0.00;;;19.80;99.90;;;;;;5013652;28;20052;-89
2023/07/26 09:42:47;;;;;;;0.00;0.00;;;19.70;99.70;;;;;;5016548;28;20018;-90
2023/07/26 09:45:19;;;;;;;0.00;0.00;;;19.80;99.90;;;;;;5013171;28;20026;-90
2023/07/26 09:47:46;;;;;;;0.00;0.00;;;19.90;99.90;;;;;;5012615;28;20431;-90
2023/07/26 09:50:26;;;;;;;0.00;0.00;;;21.00;99.20;;;;;;5013686;28;20026;-91
2023/07/26 09:52:57;;;;;;;0.00;0.00;;;19.70;99.40;;;;;;5010667;28;20116;-89
2023/07/26 09:55:27;;;;;;;0.00;0.00;;;19.80;99.60;;;;;;5013927;28;20041;-90
2023/07/26 09:57:53;;;;;;;;;;;19.90;99.20;;;;;;5008692;28;20034;-91
2023/07/26 10:00:21;;;;;;;0.00;0.00;;;20.60;98.40;;;;;;5009912;28;19921;-88
2023/07/26 10:03:11;;;;;;;0.00;0.00;;;20.60;98.80;;;;;;5011875;28;20026;-89
2023/07/26 10:05:48;;;;;;;0.00;0.00;;;20.60;98.90;;;;;;5007278;28;20118;-90
2023/07/26 10:08:13;;;;;;;0.00;0.00;;;21.00;98.00;;;;;;5008566;28;20030;-89
2023/07/26 10:10:41;;;;;;;0.00;0.00;;;21.60;96.90;;;;;;5012583;28;20026;-90
2023/07/26 10:13:09;;;;;;;0.00;0.00;;;21.60;97.00;;;;;;5010816;28;20022;-87
2023/07/26 10:15:35;;;;;;;0.00;0.00;;;21.30;95.20;;;;;;5012103;28;20501;-87
2023/07/26 10:18:01;;;;;;;0.00;0.00;;;21.10;95.00;;;;;;5015095;28;20432;-88
2023/07/26 10:20:27;;;;;;;0.00;0.00;;;;;;;;;;5019477;28;20029;-90
2023/07/26 10:22:54;;;;;;;0.00;0.00;;;21.00;95.30;;;;;;5000819;28;20100;-89
2023/07/26 10:25:21;;;;;;;0.00;0.00;;;20.90;95.80;;;;;;5022184;28;20054;-87
2023/07/26 10:27:47;;;;;;;0.00;0.00;;;21.00;94.90;;;;;;5008604;28;20060;-88
2023/07/26 10:30:13;;;;;;;0.00;0.00;;;21.00;95.10;;;;;;5009308;28;20054;-88
2023/07/26 10:32:41;;;;;;;0.00;0.00;;;21.00;95.40;;;;;;5010917;28;20061;-90
2023/07/26 10:35:10;;;;;;;0.00;0.00;;;24.00;96.30;;;;;;5004836;28;20025;-91
2023/07/26 10:37:36;;;;;;;0.00;0.00;;;20.80;96.60;;;;;;5009478;28;20117;-85
2023/07/26 10:40:28;;;;;;;0.00;0.00;;;20.60;96.20;;;;;;5027162;28;20116;-89
2023/07/26 10:42:53;;;;;;;0.00;0.00;;;20.40;96.10;;;;;;5012342;28;20034;-89
2023/07/26 10:45:41;;;;;;;0.00;0.00;;;20.10;95.60;;;;;;5008654;28;20500;-89
2023/07/26 10:48:12;;;;;;;0.00;0.00;;;19.70;96.30;;;;;;5011361;28;20121;-89
2023/07/26 10:50:38;;;;;;;0.00;0.00;;;19.60;97.10;;;;;;5010739;28;20028;-88
2023/07/26 10:53:29;;;;;;;0.00;0.00;;;19.60;97.40;;;;;;5005312;28;20116;-91
2023/07/26 10:56:11;;;;;;;0.00;0.00;;;19.90;96.30;;;;;;5006652;28;20485;-88
2023/07/26 10:58:49;;;;;;;0.00;0.00;;;20.10;95.30;;;;;;5011480;28;20033;-89
2023/07/26 11:01:31;;;;;;;0.00;0.00;;;20.40;95.70;;;;;;5004200;28;20404;-86
2023/07/26 11:03:57;;;;;;;0.00;0.00;;;20.50;96.40;;;;;;5011268;28;20068;-91
2023/07/26 11:06:43;;;;;;;0.00;0.00;;;20.50;95.00;;;;;;5020714;28;20034;-88
2023/07/26 11:09:28;;;;;;;0.00;0.00;;;20.80;95.70;;;;;;5010324;28;20409;-91
2023/07/26 11:11:59;;;;;;;0.00;0.00;;;20.50;95.30;;;;;;5004420;28;20083;-89
2023/07/26 11:14:30;;;;;;;0.00;0.00;;;20.40;94.70;;;;;;5004492;28;20033;-89
2023/07/26 11:16:59;;;;;;;0.00;0.00;;;20.70;96.30;;;;;;4993405;28;20045;-89
2023/07/26 11:19:25;;;;;;;0.00;0.00;;;;;;;;;;5006506;28;20033;-88
2023/07/26 11:21:51;;;;;;;0.00;0.00;;;21.00;95.60;;;;;;5006093;28;20281;-90
2023/07/26 11:24:17;;;;;;;0.00;0.00;;;;;;;;;;5010083;28;20404;-89
2023/07/26 11:26:46;;;;;;;0.00;0.00;;;20.80;93.60;;;;;;5008543;28;20100;-89
2023/07/26 11:29:13;;;;;;;0.00;0.00;;;20.60;95.10;;;;;;5008322;28;20407;-89
2023/07/26 11:31:57;;;;;;;0.00;0.00;;;20.50;96.80;;;;;;5013148;28;20034;-86
2023/07/26 11:34:26;;;;;;;0.00;0.00;;;20.10;94.80;;;;;;5011684;28;20163;-87
2023/07/26 11:37:08;;;;;;;0.00;0.00;;;20.10;95.60;;;;;;5014176;28;20030;-86
2023/07/26 11:39:50;;;;;;;0.00;0.00;;;20.40;97.00;;;;;;5009261;28;20030;-86
2023/07/26 11:42:19;;;;;;;0.00;0.00;;;20.60;96.10;;;;;;5008994;28;20499;-87
2023/07/26 11:44:45;;;;;;;0.00;0.00;;;20.90;97.00;;;;;;5007214;28;20026;-86
2023/07/26 11:47:13;;;;;;;0.00;0.00;;;19.60;94.80;;;;;;5015082;28;20408;-86
2023/07/26 11:49:42;;;;;;;0.00;0.00;;;21.30;95.20;;;;;;5024973;28;20205;-88
2023/07/26 11:52:16;;;;;;;0.00;0.00;;;21.10;94.30;;;;;;5013111;28;20276;-86
2023/07/26 12:36:07;;;;;;;0.00;0.00;;;;;;;;;;5054830;28;20053;-91
2023/07/26 12:38:33;;;;;;;0.00;0.00;;;;;;;;;;5038374;28;20025;-87
2023/07/26 12:40:59;;;;;;;0.00;0.00;;;;;;;;;;5065704;28;20041;-82
2023/07/26 12:43:27;;;;;;;0.00;0.00;;;20.50;97.00;;;;;;5047918;28;20035;-88
2023/07/26 12:46:00;;;;;;;0.00;0.00;;;20.40;95.10;;;;;;5038872;28;20056;-89
2023/07/26 12:53:21;;;;;;;0.00;0.00;;;20.30;95.60;;;;;;5000337;28;20066;-85
2023/07/26 12:55:51;;;;;;;0.00;0.00;;;20.10;94.70;;;;;;4984160;28;20452;-88
2023/07/26 12:58:17;;;;;;;0.00;0.00;;;;;;;;;;5005022;28;20022;-85
2023/07/26 13:00:44;;;;;;;0.00;0.00;;;20.20;95.20;;;;;;5009622;28;20117;-85
2023/07/26 13:03:15;;;;;;;0.00;0.00;;;20.90;95.20;;;;;;5011855;28;20064;-88
2023/07/26 13:05:41;;;;;;;0.00;0.00;;;20.80;95.40;;;;;;5022316;28;20112;-86
2023/07/26 13:08:27;;;;;;;0.00;0.00;;;21.10;95.60;;;;;;5011578;28;20056;-88
2023/07/26 13:10:53;;;;;;;0.00;0.00;;;24.20;96.90;;;;;;5015791;28;20456;-86
2023/07/26 13:13:18;;;;;;;0.00;0.00;;;;;;;;;;5032736;28;20037;-86
2023/07/26 13:15:45;;;;;;;0.00;0.00;;;;;;;;;;5016372;28;20038;-87
2023/07/26 13:18:10;;;;;;;0.00;0.00;;;21.20;95.00;;;;;;5008292;28;20095;-84
2023/07/26 13:20:40;;;;;;;0.00;0.00;;;21.60;94.60;;;;;;5005698;28;20519;-88
2023/07/26 13:23:06;;;;;;;0.00;0.00;;;21.60;94.80;;;;;;5029813;28;20022;-86
2023/07/26 13:25:32;;;;;;;0.00;0.00;;;21.60;94.70;;;;;;5022464;28;20120;-84
2023/07/26 13:27:58;;;;;;;0.00;0.00;;;;;;;;;;5011158;28;20054;-86
2023/07/26 13:30:24;;;;;;;0.00;0.00;;;21.80;93.90;;;;;;5005765;28;20030;-87
2023/07/26 13:32:50;;;;;;;0.00;0.00;;;21.80;93.70;;;;;;5025218;28;20045;-86
2023/07/26 13:35:16;;;;;;;0.00;0.00;;;21.80;94.30;;;;;;5013960;28;20153;-87
2023/07/26 13:37:42;;;;;;;0.00;0.00;;;19.20;93.40;;;;;;5012436;28;20036;-85
2023/07/26 13:40:14;;;;;;;0.00;0.00;;;22.00;96.00;;;;;;5026029;28;20030;-85
2023/07/26 13:42:39;;;;;;;0.00;0.00;;;22.20;95.80;;;;;;5026591;28;20028;-85
2023/07/26 13:45:05;;;;;;;0.00;0.00;;;22.30;96.90;;;;;;5007031;28;20108;-88
2023/07/26 13:47:31;;;;;;;0.00;0.00;;;22.50;96.00;;;;;;5029243;28;20022;-87
2023/07/26 13:49:57;;;;;;;0.00;0.00;;;22.60;93.40;;;;;;5012635;28;20044;-86
2023/07/26 13:52:26;;;;;;;0.00;0.00;;;23.50;93.70;;;;;;5007777;28;20030;-86
2023/07/26 13:54:52;;;;;;;0.00;0.00;;;23.00;92.30;;;;;;5005414;28;20034;-84
2023/07/26 13:57:18;;;;;;;0.00;0.00;;;22.80;92.40;;;;;;5009265;28;20037;-88
2023/07/26 13:59:44;;;;;;;0.00;0.00;;;22.80;92.80;;;;;;5013965;28;20034;-87
2023/07/26 14:02:12;;;;;;;0.00;0.00;;;22.60;92.70;;;;;;5031019;28;20030;-88
2023/07/26 14:04:38;;;;;;;0.00;0.00;;;22.60;93.20;;;;;;5028480;28;20065;-87
2023/07/26 14:07:07;;;;;;;0.00;0.00;;;23.50;92.70;;;;;;5028189;28;20037;-84
2023/07/26 14:09:33;;;;;;;0.00;0.00;;;;;;;;;;5012934;28;20261;-85
2023/07/26 14:12:03;;;;;;;0.00;0.00;;;22.50;91.20;;;;;;5009863;28;20045;-89
2023/07/26 14:14:29;;;;;;;0.00;0.00;;;;;;;;;;5020615;28;20034;-83
2023/07/26 14:16:55;;;;;;;0.00;0.00;;;;;;;;;;5011568;28;20140;-86